Latest Weather Observations for Katanning RS

IDW60801

Issued at 8:03 pm WST Friday 27 May 2016 (issued every 30 minutes, with the page automatically refreshed every 10 minutes)

About weather observations | Map of weather stations | Latest weather observations for WA | Other Formats
Station Details ID: 010916 Name: KATANNING Lat: -33.69 Lon: 117.61 Height: 320.0 m
Data from the previous 72 hours. | See also: Recent months at Katanning RS
Date/Time
WST
Temp
°C
App
Temp
°C
Dew
Point
Rel
Hum
%
Delta-T
°C
Wind Press
QNH
hPa
Press
MSL
hPa
Rain
since 9 am
mm
Dir
 
Spd
km/h
Gust
km/h
Spd
kts
Gust
kts
27/08:00pm 11.3 9.1 5.4 67 2.8 N 6 9 3 5 1018.2 1017.9 0.0
27/07:30pm 11.3 8.9 5.4 67 2.8 NNW 7 11 4 6 1018.6 1018.3 0.0
27/07:00pm 10.4 8.0 5.2 70 2.4 NNW 7 7 4 4 1018.5 1018.2 0.0
27/06:30pm 10.6 8.3 4.7 67 2.7 NNW 6 9 3 5 1018.4 1018.1 0.0
27/06:00pm 11.4 9.0 5.1 65 2.9 N 7 9 4 5 1018.1 1017.8 0.0
27/05:30pm 11.9 9.0 4.9 62 3.3 N 9 11 5 6 1018.0 1017.7 0.0
27/05:00pm 13.3 10.5 5.0 57 3.9 N 9 13 5 7 1018.1 1017.8 0.0
27/04:30pm 14.0 11.4 5.9 58 3.9 NW 9 15 5 8 1018.3 1018.0 0.0
27/04:00pm 14.5 11.1 5.8 56 4.2 NNW 13 20 7 11 1018.4 1018.1 0.0
27/03:30pm 15.5 10.9 5.4 51 4.9 NNW 19 28 10 15 1018.6 1018.3 0.0
27/03:00pm 15.6 10.8 4.9 49 5.1 NNW 19 26 10 14 1019.0 1018.6 0.0
27/02:30pm 15.9 12.7 6.9 55 4.5 NNW 13 22 7 12 1019.4 1019.1 0.0
27/02:00pm 15.6 11.4 5.8 52 4.8 NNW 17 24 9 13 1019.9 1019.6 0.0
27/01:30pm 15.6 11.0 5.8 52 4.8 N 19 28 10 15 1020.2 1019.9 0.0
27/01:00pm 15.5 11.7 6.0 53 4.6 NNW 15 26 8 14 1020.7 1020.4 0.0
27/12:30pm 15.4 11.5 5.3 51 4.9 NNW 15 20 8 11 1021.2 1020.9 0.0
27/12:00pm 14.8 10.5 5.1 52 4.6 NNW 17 24 9 13 1021.7 1021.4 0.0
27/11:30am 14.4 9.9 4.4 51 4.7 NNW 17 24 9 13 1022.0 1021.8 0.0
27/11:00am 14.0 9.9 4.3 52 4.5 NNW 15 20 8 11 1022.7 1022.4 0.0
27/10:30am 13.0 10.2 7.0 67 2.9 N 11 17 6 9 1023.2 1022.9 0.0
27/10:00am 11.8 9.4 6.9 72 2.4 N 9 15 5 8 1023.6 1023.3 0.0
27/09:30am 10.9 8.8 6.8 76 2.0 N 7 9 4 5 1023.8 1023.5 0.0
27/09:00am 9.6 7.7 6.9 83 1.3 NNE 6 7 3 4 1023.8 1023.5 0.0
27/08:30am 7.8 6.9 5.9 88 0.9 CALM 0 0 0 0 1023.7 1023.4 0.0
27/08:00am 6.5 5.3 4.8 89 0.8 CALM 0 0 0 0 1023.7 1023.4 0.0
27/07:30am 4.7 3.2 3.0 89 0.7 CALM 0 0 0 0 1023.4 1023.1 0.0
27/07:00am 4.1 2.4 2.1 87 0.8 CALM 0 0 0 0 1023.0 1022.7 0.0
27/06:30am 4.7 3.2 2.9 88 0.7 CALM 0 0 0 0 1022.9 1022.6 0.0
27/06:00am 4.2 2.6 2.2 87 0.8 CALM 0 0 0 0 1022.8 1022.5 0.0
27/05:30am 5.0 3.2 3.2 88 0.8 NW 2 4 1 2 1022.7 1022.4 0.0
27/05:00am 4.4 2.8 2.4 87 0.8 CALM 0 0 0 0 1022.5 1022.2 0.0
27/04:30am 4.7 2.0 2.6 86 0.9 NW 6 7 3 4 1022.5 1022.2 0.0
27/04:00am 4.7 2.7 2.2 84 1.0 NW 2 4 1 2 1022.4 1022.1 0.0
27/03:30am 4.8 2.8 2.2 83 1.1 NW 2 6 1 3 1022.4 1022.1 0.0
27/03:00am 6.0 2.8 3.3 83 1.1 NW 9 9 5 5 1022.6 1022.3 0.0
27/02:30am 6.9 3.6 4.4 84 1.1 NW 11 13 6 7 1022.7 1022.4 0.0
27/02:00am 6.0 3.5 3.5 84 1.1 NNW 6 7 3 4 1022.5 1022.2 0.0
27/01:30am 6.7 3.7 3.9 82 1.2 NW 9 11 5 6 1022.9 1022.6 0.0
27/01:00am 6.7 4.0 2.6 75 1.7 W 6 9 3 5 1022.8 1022.5 0.0
27/12:30am 8.4 5.5 4.6 77 1.7 W 9 11 5 6 1023.0 1022.7 0.0
27/12:00am 8.3 5.3 4.3 76 1.8 W 9 11 5 6 1022.9 1022.6 0.0
 
Date/Time
WST
Temp
°C
App
Temp
°C
Dew
Point
Rel
Hum
%
Delta-T
°C
Wind Press
QNH
hPa
Press
MSL
hPa
Rain
since 9 am
mm
Dir
 
Spd
km/h
Gust
km/h
Spd
kts
Gust
kts
26/11:30pm 8.8 5.9 4.6 75 1.9 W 9 11 5 6 1022.8 1022.5 0.0
26/11:00pm 8.7 5.8 4.5 75 1.9 WSW 9 11 5 6 1022.8 1022.5 0.0
26/10:30pm 8.4 5.4 4.2 75 1.9 W 9 11 5 6 1022.8 1022.5 0.0
26/10:00pm 8.8 5.8 4.2 73 2.0 W 9 9 5 5 1022.8 1022.5 0.0
26/09:30pm 9.1 6.2 4.5 73 2.1 W 9 9 5 5 1022.7 1022.4 0.0
26/09:00pm 8.8 5.9 4.4 74 2.0 W 9 11 5 6 1022.5 1022.2 0.0
26/08:30pm 9.0 6.1 4.6 74 2.0 WSW 9 11 5 6 1022.1 1021.9 0.0
26/08:00pm 9.7 6.8 4.5 70 2.3 W 9 9 5 5 1021.8 1021.6 0.0
26/07:30pm 10.2 7.7 4.8 69 2.5 W 7 9 4 5 1021.5 1021.2 0.0
26/07:00pm 10.6 8.1 4.9 68 2.6 W 7 9 4 5 1021.3 1021.0 0.0
26/06:30pm 10.0 7.5 5.0 71 2.3 WNW 7 9 4 5 1020.8 1020.5 0.0
26/06:00pm 11.0 8.8 5.1 67 2.7 WNW 6 7 3 4 1020.5 1020.2 0.0
26/05:30pm 12.4 10.2 5.3 62 3.3 WSW 6 7 3 4 1020.0 1019.7 0.0
26/05:00pm 12.8 10.5 5.7 62 3.4 W 7 9 4 5 1019.8 1019.5 0.0
26/04:30pm 14.0 10.8 4.9 54 4.3 WSW 11 17 6 9 1019.6 1019.3 0.0
26/04:00pm 14.7 11.0 4.4 50 4.8 WSW 13 19 7 10 1019.2 1018.8 0.0
26/03:30pm 14.4 10.3 4.4 51 4.7 WSW 15 20 8 11 1018.8 1018.5 0.0
26/03:00pm 15.2 10.3 4.9 50 4.9 W 20 26 11 14 1018.3 1018.0 0.0
26/02:30pm 14.9 11.0 5.4 53 4.6 WSW 15 20 8 11 1018.1 1017.8 0.0
26/02:00pm 15.2 10.5 5.1 51 4.8 SW 19 32 10 17 1018.1 1017.8 0.0
26/01:30pm 15.0 9.2 4.4 49 5.0 WSW 24 32 13 17 1017.6 1017.3 0.0
26/01:00pm 14.7 9.5 5.5 54 4.4 WSW 22 33 12 18 1017.7 1017.4 0.0
26/12:30pm 14.9 9.5 6.2 56 4.3 WSW 24 35 13 19 1017.7 1017.4 0.0
26/12:00pm 15.0 9.3 6.8 58 4.1 WSW 26 35 14 19 1017.2 1016.9 0.0
26/11:30am 14.8 10.8 8.3 65 3.3 WSW 19 28 10 15 1017.4 1017.1 0.0
26/11:00am 14.0 9.4 8.2 68 2.9 WSW 22 32 12 17 1017.4 1017.1 0.0
26/10:30am 13.7 9.8 9.4 75 2.2 W 20 26 11 14 1017.1 1016.8 0.0
26/10:00am 13.0 9.2 9.1 77 2.0 W 19 28 10 15 1017.0 1016.7 0.0
26/09:30am 12.6 9.2 9.1 79 1.8 W 17 22 9 12 1016.3 1015.9 0.0
26/09:00am 11.9 9.1 8.7 81 1.6 WNW 13 20 7 11 1016.1 1015.7 0.4
26/08:30am 11.2 8.7 8.4 83 1.4 W 11 17 6 9 1015.5 1015.2 0.4
26/08:00am 10.4 7.9 8.0 85 1.2 W 11 15 6 8 1014.7 1014.4 0.4
26/07:30am 9.9 6.9 7.7 86 1.1 WNW 13 20 7 11 1014.3 1014.0 0.4
26/07:00am 9.8 6.5 7.9 88 0.9 WNW 15 19 8 10 1014.0 1013.7 0.4
26/06:30am 9.7 6.7 7.6 87 1.0 WNW 13 17 7 9 1013.5 1013.1 0.4
26/06:00am 10.1 6.8 8.0 87 1.0 WNW 15 24 8 13 1012.9 1012.5 0.4
26/05:30am 10.2 6.5 8.1 87 1.0 WNW 17 22 9 12 1012.4 1012.0 0.4
26/05:00am 10.2 6.5 8.1 87 1.0 WNW 17 24 9 13 1011.9 1011.6 0.4
26/04:30am 10.2 6.2 8.3 88 0.9 NW 19 26 10 14 1011.6 1011.3 0.4
26/04:00am 10.0 6.0 8.3 89 0.8 NW 19 24 10 13 1011.6 1011.3 0.4
26/03:30am 9.8 6.5 8.1 89 0.8 NW 15 22 8 12 1011.6 1011.3 0.4
26/03:00am 9.7 6.8 8.0 89 0.8 NW 13 19 7 10 1011.6 1011.3 0.2
26/02:30am 9.5 6.5 7.8 89 0.8 NW 13 19 7 10 1011.6 1011.3 0.2
26/02:00am 9.4 6.8 7.7 89 0.8 NW 11 15 6 8 1011.3 1011.0 0.2
26/01:30am 9.4 6.7 7.5 88 0.9 NW 11 17 6 9 1010.9 1010.5 0.2
26/01:00am 9.5 6.5 7.6 88 0.9 NW 13 17 7 9 1011.4 1011.1 0.2
26/12:30am 9.2 6.5 7.3 88 0.9 NNW 11 15 6 8 1011.3 1011.0 0.2
26/12:00am 9.3 6.2 7.4 88 0.9 NNW 13 17 7 9 1011.4 1011.1 0.2
 
Date/Time
WST
Temp
°C
App
Temp
°C
Dew
Point
Rel
Hum
%
Delta-T
°C
Wind Press
QNH
hPa
Press
MSL
hPa
Rain
since 9 am
mm
Dir
 
Spd
km/h
Gust
km/h
Spd
kts
Gust
kts
25/11:30pm 9.3 6.6 7.4 88 0.9 NNW 11 15 6 8 1011.4 1011.1 0.2
25/11:00pm 9.7 7.1 7.6 87 1.0 NNW 11 15 6 8 1011.5 1011.2 0.2
25/10:30pm 10.0 7.4 7.8 86 1.1 NNW 11 17 6 9 1011.5 1011.2 0.2
25/10:00pm 10.3 7.7 7.9 85 1.2 NW 11 15 6 8 1011.6 1011.3 0.2
25/09:30pm 9.8 7.4 7.2 84 1.3 NNW 9 13 5 7 1011.7 1011.4 0.2
25/09:00pm 10.3 7.7 7.9 85 1.2 NW 11 15 6 8 1011.8 1011.5 0.2
25/08:30pm 10.7 8.2 8.3 85 1.2 NW 11 15 6 8 1011.9 1011.6 0.2
25/08:00pm 10.6 8.4 7.8 83 1.4 NW 9 15 5 8 1012.0 1011.7 0.2
25/07:30pm 11.3 9.4 9.0 86 1.2 NW 9 17 5 9 1011.8 1011.5 0.2
25/07:00pm 9.8 8.1 7.6 86 1.1 NNW 6 9 3 5 1011.5 1011.2 0.2
25/06:30pm 10.2 8.8 7.4 83 1.4 NNW 4 6 2 3 1011.4 1011.1 0.2
25/06:00pm 11.1 9.5 8.0 81 1.5 WNW 6 9 3 5 1011.1 1010.7 0.2
25/05:30pm 11.7 10.1 8.2 79 1.7 W 6 9 3 5 1010.7 1010.3 0.2
25/05:00pm 12.7 10.2 8.4 75 2.2 NW 11 15 6 8 1010.8 1010.4 0.0
25/04:30pm 13.2 9.7 7.2 67 3.0 NW 15 22 8 12 1010.5 1010.1 0.0
25/04:00pm 14.0 11.5 8.2 68 2.9 NW 11 17 6 9 1010.3 1009.9 0.0
25/03:30pm 13.4 10.5 8.0 70 2.7 NW 13 20 7 11 1010.0 1009.6 0.0
25/03:00pm 13.5 9.1 7.5 67 3.0 NW 20 30 11 16 1010.1 1009.7 0.0
25/02:30pm 14.3 10.6 7.8 65 3.3 WNW 17 26 9 14 1009.9 1009.5 0.0
25/02:00pm 15.0 10.7 7.1 59 4.0 WNW 19 30 10 16 1009.8 1009.4 0.0
25/01:30pm 14.5 10.8 8.0 65 3.3 W 17 22 9 12 1009.8 1009.4 0.0
25/01:00pm 14.1 10.7 7.6 65 3.3 WNW 15 22 8 12 1009.9 1009.5 0.0
25/12:30pm 14.1 10.4 8.1 67 3.0 WNW 17 24 9 13 1010.0 1009.6 0.0
25/12:00pm 13.0 8.7 6.8 66 3.0 WNW 19 24 10 13 1010.4 1010.0 0.0
25/11:30am 13.0 9.2 7.7 70 2.6 W 17 24 9 13 1010.7 1010.3 0.0
25/11:00am 12.6 8.8 7.5 71 2.5 WNW 17 26 9 14 1011.1 1010.7 0.0
25/10:30am 12.3 9.1 8.4 77 2.0 WNW 15 20 8 11 1011.1 1010.7 0.0
25/10:00am 11.9 8.7 8.4 79 1.8 NW 15 20 8 11 1011.2 1010.9 0.0
25/09:30am 11.4 8.6 8.6 83 1.4 NW 13 19 7 10 1011.3 1011.0 0.0
25/09:00am 10.7 7.9 8.5 86 1.1 NW 13 20 7 11 1011.5 1011.2 0.0
25/08:30am 10.3 6.6 8.1 86 1.1 NW 17 22 9 12 1011.2 1010.9 0.0
25/08:00am 8.9 6.2 7.2 89 0.8 NW 11 15 6 8 1011.0 1010.6 0.0
25/07:30am 8.4 5.9 6.5 88 0.9 NW 9 15 5 8 1010.8 1010.4 0.0
25/07:00am 8.3 6.1 6.3 87 0.9 NW 7 11 4 6 1010.6 1010.2 0.0
25/06:30am 8.3 5.0 6.3 87 0.9 NW 13 17 7 9 1010.4 1010.0 0.0
25/06:00am 8.3 5.4 6.3 87 0.9 NW 11 15 6 8 1010.2 1009.8 0.0
25/05:30am 7.7 5.0 5.7 87 0.9 NW 9 13 5 7 1010.1 1009.7 0.0
25/05:00am 7.6 4.9 5.6 87 0.9 WNW 9 13 5 7 1009.9 1009.5 0.0
25/04:30am 7.8 4.7 5.6 86 1.0 NW 11 15 6 8 1009.8 1009.4 0.0
25/04:00am 7.8 5.1 5.6 86 1.0 WNW 9 13 5 7 1009.7 1009.3 0.0
25/03:30am 7.9 5.2 5.7 86 1.0 NW 9 15 5 8 1009.9 1009.5 0.0
25/03:00am 7.5 4.3 5.3 86 1.0 NW 11 17 6 9 1009.7 1009.3 0.0
25/02:30am 7.6 4.4 5.2 85 1.1 NW 11 15 6 8 1009.8 1009.4 0.0
25/02:00am 8.1 5.4 5.7 85 1.1 NW 9 15 5 8 1009.8 1009.4 0.0
25/01:30am 8.2 5.5 5.7 84 1.2 NW 9 13 5 7 1009.7 1009.3 0.0
25/01:00am 8.1 5.4 5.7 85 1.1 NW 9 11 5 6 1009.7 1009.3 0.0
25/12:30am 8.0 5.7 5.5 84 1.1 NW 7 9 4 5 1009.7 1009.3 0.0
25/12:00am 8.6 6.0 6.1 84 1.2 WNW 9 13 5 7 1009.9 1009.5 0.0
 
Date/Time
WST
Temp
°C
App
Temp
°C
Dew
Point
Rel
Hum
%
Delta-T
°C
Wind Press
QNH
hPa
Press
MSL
hPa
Rain
since 9 am
mm
Dir
 
Spd
km/h
Gust
km/h
Spd
kts
Gust
kts
24/11:30pm 8.8 5.9 6.4 85 1.1 NW 11 13 6 7 1009.8 1009.4 0.0
24/11:00pm 8.5 5.8 5.6 82 1.3 NW 9 11 5 6 1010.0 1009.6 0.0
24/10:30pm 8.4 6.1 5.5 82 1.3 WNW 7 9 4 5 1009.9 1009.5 0.0
24/10:00pm 8.0 5.4 4.4 78 1.6 NW 7 9 4 5 1009.9 1009.5 0.0
24/09:30pm 9.3 7.1 6.4 82 1.4 WNW 7 9 4 5 1009.9 1009.5 0.0
24/09:00pm 9.3 7.2 6.0 80 1.5 WNW 6 7 3 4 1009.9 1009.5 0.0
24/08:30pm 10.2 8.2 6.9 80 1.6 WNW 7 11 4 6 1009.8 1009.4 0.0

Other Formats:

Comma delimited format used in spreadsheet applications
http://www.bom.gov.au/fwo/IDW60801/IDW60801.94641.axf

JavaScript Object Notation format (JSON) in row-major order
http://www.bom.gov.au/fwo/IDW60801/IDW60801.94641.json